Terminal Aerodrome Forecast
Issued by NWS Spokane, WA

Home | Current Version | Previous Version | Text Only | Print | Product List | Glossary On
Versions: 1 2 3 4 5 6 7 8 9 10 11 12 13 14 15 16 17 18 19 20 21 22 23 24 25 26 27 28 29 30 31 32
036
FTUS46 KOTX 301724
TAFLWS
TAF
KLWS 301724Z 3018/0118 VRB04KT P6SM FEW200
     FM302300 32006KT P6SM SCT100 BKN150
     FM010800 30010KT P6SM -SHRA VCTS FEW080CB BKN100
     FM011200 VRB04KT P6SM SCT100 BKN200=

USA.gov is the U.S. government's official web portal to all federal, state and local government web resources and services.